sensor_id;sensor_type;location;lat;lon;timestamp;temperature;humidity
66835;HTU21D;53743;51.100;5.874;2023-05-10T00:00:35;15.71;99.24
66835;HTU21D;53743;51.100;5.874;2023-05-10T00:01:38;15.68;99.45
66835;HTU21D;53743;51.100;5.874;2023-05-10T00:02:39;15.68;99.18
66835;HTU21D;53743;51.100;5.874;2023-05-10T00:03:41;15.63;99.52
66835;HTU21D;53743;51.100;5.874;2023-05-10T00:04:41;15.63;99.26
66835;HTU21D;53743;51.100;5.874;2023-05-10T00:05:43;15.62;99.55
66835;HTU21D;53743;51.100;5.874;2023-05-10T00:06:44;15.62;99.55
66835;HTU21D;53743;51.100;5.874;2023-05-10T00:07:46;15.66;99.54
66835;HTU21D;53743;51.100;5.874;2023-05-10T00:08:46;15.66;99.48
66835;HTU21D;53743;51.100;5.874;2023-05-10T00:09:48;15.60;99.69
66835;HTU21D;53743;51.100;5.874;2023-05-10T00:10:49;15.62;99.42
66835;HTU21D;53743;51.100;5.874;2023-05-10T00:11:53;15.60;99.43
66835;HTU21D;53743;51.100;5.874;2023-05-10T00:12:54;15.57;99.63
66835;HTU21D;53743;51.100;5.874;2023-05-10T00:13:56;15.56;99.70
66835;HTU21D;53743;51.100;5.874;2023-05-10T00:14:57;15.53;99.87
66835;HTU21D;53743;51.100;5.874;2023-05-10T00:15:59;15.51;99.93
66835;HTU21D;53743;51.100;5.874;2023-05-10T00:17:01;15.52;99.93
66835;HTU21D;53743;51.100;5.874;2023-05-10T00:18:03;15.51;99.90
66835;HTU21D;53743;51.100;5.874;2023-05-10T00:19:04;15.47;100.07
66835;HTU21D;53743;51.100;5.874;2023-05-10T00:20:07;15.49;99.83
66835;HTU21D;53743;51.100;5.874;2023-05-10T00:21:08;15.48;100.02
66835;HTU21D;53743;51.100;5.874;2023-05-10T00:22:09;15.49;99.64
66835;HTU21D;53743;51.100;5.874;2023-05-10T00:23:11;15.48;99.80
66835;HTU21D;53743;51.100;5.874;2023-05-10T00:24:12;15.45;100.16
66835;HTU21D;53743;51.100;5.874;2023-05-10T00:25:13;15.44;100.19
66835;HTU21D;53743;51.100;5.874;2023-05-10T00:26:15;15.43;100.26
66835;HTU21D;53743;51.100;5.874;2023-05-10T00:27:19;15.45;100.45
66835;HTU21D;53743;51.100;5.874;2023-05-10T00:28:21;15.46;100.36
66835;HTU21D;53743;51.100;5.874;2023-05-10T00:29:22;15.46;100.40
66835;HTU21D;53743;51.100;5.874;2023-05-10T00:30:24;15.46;100.29
66835;HTU21D;53743;51.100;5.874;2023-05-10T00:31:25;15.46;100.15
66835;HTU21D;53743;51.100;5.874;2023-05-10T00:32:28;15.44;100.41
66835;HTU21D;53743;51.100;5.874;2023-05-10T00:33:30;15.42;100.64
66835;HTU21D;53743;51.100;5.874;2023-05-10T00:34:32;15.44;100.34
66835;HTU21D;53743;51.100;5.874;2023-05-10T00:35:33;15.39;100.23
66835;HTU21D;53743;51.100;5.874;2023-05-10T00:36:35;15.36;100.48
66835;HTU21D;53743;51.100;5.874;2023-05-10T00:37:35;15.36;100.18
66835;HTU21D;53743;51.100;5.874;2023-05-10T00:38:37;15.37;100.22
66835;HTU21D;53743;51.100;5.874;2023-05-10T00:39:38;15.39;99.76
66835;HTU21D;53743;51.100;5.874;2023-05-10T00:40:40;15.34;100.07
66835;HTU21D;53743;51.100;5.874;2023-05-10T00:41:47;15.33;100.32
66835;HTU21D;53743;51.100;5.874;2023-05-10T00:42:50;15.33;100.44
66835;HTU21D;53743;51.100;5.874;2023-05-10T00:43:51;15.33;100.35
66835;HTU21D;53743;51.100;5.874;2023-05-10T00:44:53;15.33;100.29
66835;HTU21D;53743;51.100;5.874;2023-05-10T00:45:54;15.32;100.29
66835;HTU21D;53743;51.100;5.874;2023-05-10T00:46:57;15.33;100.37
66835;HTU21D;53743;51.100;5.874;2023-05-10T00:48:02;15.37;100.39
66835;HTU21D;53743;51.100;5.874;2023-05-10T00:49:04;15.37;100.43
66835;HTU21D;53743;51.100;5.874;2023-05-10T00:50:07;15.42;100.20
66835;HTU21D;53743;51.100;5.874;2023-05-10T00:51:09;15.44;99.96
66835;HTU21D;53743;51.100;5.874;2023-05-10T00:52:13;15.39;100.19
66835;HTU21D;53743;51.100;5.874;2023-05-10T00:53:15;15.38;100.09
66835;HTU21D;53743;51.100;5.874;2023-05-10T00:54:17;15.37;100.07
66835;HTU21D;53743;51.100;5.874;2023-05-10T00:55:19;15.39;100.25
66835;HTU21D;53743;51.100;5.874;2023-05-10T00:56:21;15.40;99.94
66835;HTU21D;53743;51.100;5.874;2023-05-10T00:57:24;15.39;100.19
66835;HTU21D;53743;51.100;5.874;2023-05-10T00:58:26;15.38;100.35
66835;HTU21D;53743;51.100;5.874;2023-05-10T00:59:29;15.38;100.48
66835;HTU21D;53743;51.100;5.874;2023-05-10T01:00:33;15.38;100.42
66835;HTU21D;53743;51.100;5.874;2023-05-10T01:01:35;15.39;100.40
66835;HTU21D;53743;51.100;5.874;2023-05-10T01:02:37;15.40;100.45
66835;HTU21D;53743;51.100;5.874;2023-05-10T01:03:39;15.40;100.44
66835;HTU21D;53743;51.100;5.874;2023-05-10T01:04:43;15.42;100.46
66835;HTU21D;53743;51.100;5.874;2023-05-10T01:05:44;15.43;100.55
66835;HTU21D;53743;51.100;5.874;2023-05-10T01:06:45;15.46;100.36
66835;HTU21D;53743;51.100;5.874;2023-05-10T01:07:46;15.47;100.40
66835;HTU21D;53743;51.100;5.874;2023-05-10T01:08:49;15.49;100.29
66835;HTU21D;53743;51.100;5.874;2023-05-10T01:09:50;15.51;99.92
66835;HTU21D;53743;51.100;5.874;2023-05-10T01:10:52;15.53;100.01
66835;HTU21D;53743;51.100;5.874;2023-05-10T01:11:54;15.53;100.09
66835;HTU21D;53743;51.100;5.874;2023-05-10T01:12:58;15.56;99.81
66835;HTU21D;53743;51.100;5.874;2023-05-10T01:14:00;15.57;99.93
66835;HTU21D;53743;51.100;5.874;2023-05-10T01:15:03;15.59;99.70
66835;HTU21D;53743;51.100;5.874;2023-05-10T01:16:05;15.60;99.65
66835;HTU21D;53743;51.100;5.874;2023-05-10T01:17:07;15.63;99.53
66835;HTU21D;53743;51.100;5.874;2023-05-10T01:18:09;15.66;99.32
66835;HTU21D;53743;51.100;5.874;2023-05-10T01:19:19;15.67;99.08
66835;HTU21D;53743;51.100;5.874;2023-05-10T01:20:22;15.70;98.92
66835;HTU21D;53743;51.100;5.874;2023-05-10T01:21:38;15.70;98.93
66835;HTU21D;53743;51.100;5.874;2023-05-10T01:23:05;15.73;98.80
66835;HTU21D;53743;51.100;5.874;2023-05-10T01:24:49;15.73;98.83
66835;HTU21D;53743;51.100;5.874;2023-05-10T01:26:20;15.76;98.68
66835;HTU21D;53743;51.100;5.874;2023-05-10T01:27:51;15.77;98.71
66835;HTU21D;53743;51.100;5.874;2023-05-10T01:29:17;15.80;98.75
66835;HTU21D;53743;51.100;5.874;2023-05-10T01:32:23;15.82;98.35
66835;HTU21D;53743;51.100;5.874;2023-05-10T01:33:34;15.82;98.48
66835;HTU21D;53743;51.100;5.874;2023-05-10T01:34:45;15.81;98.61
66835;HTU21D;53743;51.100;5.874;2023-05-10T01:35:58;15.83;98.43
66835;HTU21D;53743;51.100;5.874;2023-05-10T01:37:07;15.84;98.43
66835;HTU21D;53743;51.100;5.874;2023-05-10T01:38:18;15.83;98.45
66835;HTU21D;53743;51.100;5.874;2023-05-10T01:39:36;15.82;98.61
66835;HTU21D;53743;51.100;5.874;2023-05-10T01:40:51;15.83;98.56
66835;HTU21D;53743;51.100;5.874;2023-05-10T01:41:59;15.82;98.55
66835;HTU21D;53743;51.100;5.874;2023-05-10T01:43:14;15.81;98.52
66835;HTU21D;53743;51.100;5.874;2023-05-10T01:44:24;15.80;98.51
66835;HTU21D;53743;51.100;5.874;2023-05-10T01:45:32;15.80;98.69
66835;HTU21D;53743;51.100;5.874;2023-05-10T01:46:37;15.75;98.71
66835;HTU21D;53743;51.100;5.874;2023-05-10T01:47:43;15.72;98.74
66835;HTU21D;53743;51.100;5.874;2023-05-10T01:48:51;15.69;98.88
66835;HTU21D;53743;51.100;5.874;2023-05-10T01:49:56;15.70;98.79
66835;HTU21D;53743;51.100;5.874;2023-05-10T01:51:02;15.67;98.75
66835;HTU21D;53743;51.100;5.874;2023-05-10T01:52:10;15.67;98.89
66835;HTU21D;53743;51.100;5.874;2023-05-10T01:53:13;15.68;98.84
66835;HTU21D;53743;51.100;5.874;2023-05-10T01:54:21;15.67;98.99
66835;HTU21D;53743;51.100;5.874;2023-05-10T01:55:26;15.66;98.96
66835;HTU21D;53743;51.100;5.874;2023-05-10T01:56:34;15.62;98.96
66835;HTU21D;53743;51.100;5.874;2023-05-10T01:57:39;15.63;99.19
66835;HTU21D;53743;51.100;5.874;2023-05-10T01:58:45;15.65;99.14
66835;HTU21D;53743;51.100;5.874;2023-05-10T01:59:50;15.63;98.98
66835;HTU21D;53743;51.100;5.874;2023-05-10T02:00:54;15.61;99.35
66835;HTU21D;53743;51.100;5.874;2023-05-10T02:01:58;15.60;99.33
66835;HTU21D;53743;51.100;5.874;2023-05-10T02:03:06;15.58;99.41
66835;HTU21D;53743;51.100;5.874;2023-05-10T02:04:10;15.54;99.58
66835;HTU21D;53743;51.100;5.874;2023-05-10T02:05:16;15.54;99.51
66835;HTU21D;53743;51.100;5.874;2023-05-10T02:06:20;15.53;99.65
66835;HTU21D;53743;51.100;5.874;2023-05-10T02:07:24;15.48;100.07
66835;HTU21D;53743;51.100;5.874;2023-05-10T02:08:26;15.46;100.11
66835;HTU21D;53743;51.100;5.874;2023-05-10T02:09:31;15.47;99.72
66835;HTU21D;53743;51.100;5.874;2023-05-10T02:10:34;15.45;100.02
66835;HTU21D;53743;51.100;5.874;2023-05-10T02:11:37;15.39;100.46
66835;HTU21D;53743;51.100;5.874;2023-05-10T02:12:42;15.41;100.37
66835;HTU21D;53743;51.100;5.874;2023-05-10T02:13:47;15.38;100.34
66835;HTU21D;53743;51.100;5.874;2023-05-10T02:14:51;15.40;100.49
66835;HTU21D;53743;51.100;5.874;2023-05-10T02:15:56;15.40;100.29
66835;HTU21D;53743;51.100;5.874;2023-05-10T02:17:02;15.40;100.38
66835;HTU21D;53743;51.100;5.874;2023-05-10T02:18:09;15.42;100.11
66835;HTU21D;53743;51.100;5.874;2023-05-10T02:19:13;15.41;100.19
66835;HTU21D;53743;51.100;5.874;2023-05-10T02:20:19;15.42;100.05
66835;HTU21D;53743;51.100;5.874;2023-05-10T02:21:22;15.41;100.12
66835;HTU21D;53743;51.100;5.874;2023-05-10T02:22:26;15.42;100.29
66835;HTU21D;53743;51.100;5.874;2023-05-10T02:23:32;15.45;100.03
66835;HTU21D;53743;51.100;5.874;2023-05-10T02:24:36;15.45;100.20
66835;HTU21D;53743;51.100;5.874;2023-05-10T02:25:39;15.43;100.17
66835;HTU21D;53743;51.100;5.874;2023-05-10T02:26:43;15.43;100.23
66835;HTU21D;53743;51.100;5.874;2023-05-10T02:27:45;15.47;100.17
66835;HTU21D;53743;51.100;5.874;2023-05-10T02:28:49;15.45;100.03
66835;HTU21D;53743;51.100;5.874;2023-05-10T02:29:51;15.42;100.24
66835;HTU21D;53743;51.100;5.874;2023-05-10T02:30:55;15.40;100.22
66835;HTU21D;53743;51.100;5.874;2023-05-10T02:31:58;15.41;100.21
66835;HTU21D;53743;51.100;5.874;2023-05-10T02:33:01;15.38;100.29
66835;HTU21D;53743;51.100;5.874;2023-05-10T02:34:08;15.36;100.35
66835;HTU21D;53743;51.100;5.874;2023-05-10T02:35:11;15.34;100.49
66835;HTU21D;53743;51.100;5.874;2023-05-10T02:36:13;15.33;100.54
66835;HTU21D;53743;51.100;5.874;2023-05-10T02:37:19;15.33;100.54
66835;HTU21D;53743;51.100;5.874;2023-05-10T02:38:23;15.34;100.33
66835;HTU21D;53743;51.100;5.874;2023-05-10T02:39:28;15.33;100.38
66835;HTU21D;53743;51.100;5.874;2023-05-10T02:40:33;15.31;100.41
66835;HTU21D;53743;51.100;5.874;2023-05-10T02:41:37;15.31;100.41
66835;HTU21D;53743;51.100;5.874;2023-05-10T02:42:42;15.26;100.95
66835;HTU21D;53743;51.100;5.874;2023-05-10T02:43:47;15.26;100.66
66835;HTU21D;53743;51.100;5.874;2023-05-10T02:44:51;15.28;100.57
66835;HTU21D;53743;51.100;5.874;2023-05-10T02:45:54;15.27;100.66
66835;HTU21D;53743;51.100;5.874;2023-05-10T02:46:59;15.31;100.32
66835;HTU21D;53743;51.100;5.874;2023-05-10T02:48:00;15.30;100.35
66835;HTU21D;53743;51.100;5.874;2023-05-10T02:49:02;15.29;100.32
66835;HTU21D;53743;51.100;5.874;2023-05-10T02:50:06;15.29;100.19
66835;HTU21D;53743;51.100;5.874;2023-05-10T02:51:10;15.32;99.93
66835;HTU21D;53743;51.100;5.874;2023-05-10T02:52:18;15.32;100.00
66835;HTU21D;53743;51.100;5.874;2023-05-10T02:53:28;15.31;100.04
66835;HTU21D;53743;51.100;5.874;2023-05-10T02:54:34;15.29;99.90
66835;HTU21D;53743;51.100;5.874;2023-05-10T02:55:40;15.28;100.08
66835;HTU21D;53743;51.100;5.874;2023-05-10T02:56:48;15.27;100.01
66835;HTU21D;53743;51.100;5.874;2023-05-10T02:57:57;15.25;100.06
66835;HTU21D;53743;51.100;5.874;2023-05-10T02:58:58;15.25;100.02
66835;HTU21D;53743;51.100;5.874;2023-05-10T03:00:01;15.25;100.19
66835;HTU21D;53743;51.100;5.874;2023-05-10T03:01:06;15.24;100.00
66835;HTU21D;53743;51.100;5.874;2023-05-10T03:02:08;15.26;99.67
66835;HTU21D;53743;51.100;5.874;2023-05-10T03:03:09;15.23;99.90
66835;HTU21D;53743;51.100;5.874;2023-05-10T03:04:11;15.22;99.97
66835;HTU21D;53743;51.100;5.874;2023-05-10T03:05:13;15.23;99.82
66835;HTU21D;53743;51.100;5.874;2023-05-10T03:06:15;15.23;99.71
66835;HTU21D;53743;51.100;5.874;2023-05-10T03:07:17;15.25;99.65
66835;HTU21D;53743;51.100;5.874;2023-05-10T03:08:23;15.26;99.40
66835;HTU21D;53743;51.100;5.874;2023-05-10T03:09:24;15.26;99.22
66835;HTU21D;53743;51.100;5.874;2023-05-10T03:10:29;15.25;99.34
66835;HTU21D;53743;51.100;5.874;2023-05-10T03:11:41;15.19;99.27
66835;HTU21D;53743;51.100;5.874;2023-05-10T03:12:56;15.15;99.21
66835;HTU21D;53743;51.100;5.874;2023-05-10T03:14:13;15.09;99.62
66835;HTU21D;53743;51.100;5.874;2023-05-10T03:15:35;15.06;99.26
66835;HTU21D;53743;51.100;5.874;2023-05-10T03:16:44;15.06;99.68
66835;HTU21D;53743;51.100;5.874;2023-05-10T03:17:54;15.04;99.95
66835;HTU21D;53743;51.100;5.874;2023-05-10T03:19:04;15.02;99.83
66835;HTU21D;53743;51.100;5.874;2023-05-10T03:20:10;15.00;99.54
66835;HTU21D;53743;51.100;5.874;2023-05-10T03:21:17;14.99;99.64
66835;HTU21D;53743;51.100;5.874;2023-05-10T03:22:25;14.98;99.35
66835;HTU21D;53743;51.100;5.874;2023-05-10T03:23:33;14.87;99.96
66835;HTU21D;53743;51.100;5.874;2023-05-10T03:24:39;14.88;99.56
66835;HTU21D;53743;51.100;5.874;2023-05-10T03:25:42;14.86;99.63
66835;HTU21D;53743;51.100;5.874;2023-05-10T03:26:46;14.92;99.46
66835;HTU21D;53743;51.100;5.874;2023-05-10T03:27:52;14.94;98.71
66835;HTU21D;53743;51.100;5.874;2023-05-10T03:28:55;14.94;98.74
66835;HTU21D;53743;51.100;5.874;2023-05-10T03:29:57;14.91;99.19
66835;HTU21D;53743;51.100;5.874;2023-05-10T03:31:00;14.95;98.93
66835;HTU21D;53743;51.100;5.874;2023-05-10T03:32:01;14.92;99.13
66835;HTU21D;53743;51.100;5.874;2023-05-10T03:33:05;14.86;98.59
66835;HTU21D;53743;51.100;5.874;2023-05-10T03:34:07;14.86;99.26
66835;HTU21D;53743;51.100;5.874;2023-05-10T03:35:09;14.86;99.33
66835;HTU21D;53743;51.100;5.874;2023-05-10T03:36:11;14.84;99.62
66835;HTU21D;53743;51.100;5.874;2023-05-10T03:37:14;14.84;99.84
66835;HTU21D;53743;51.100;5.874;2023-05-10T03:38:15;14.86;99.41
66835;HTU21D;53743;51.100;5.874;2023-05-10T03:39:17;14.85;99.55
66835;HTU21D;53743;51.100;5.874;2023-05-10T03:40:25;14.84;99.58
66835;HTU21D;53743;51.100;5.874;2023-05-10T03:41:26;14.84;99.56
66835;HTU21D;53743;51.100;5.874;2023-05-10T03:42:28;14.81;99.48
66835;HTU21D;53743;51.100;5.874;2023-05-10T03:43:29;14.82;99.54
66835;HTU21D;53743;51.100;5.874;2023-05-10T03:44:31;14.84;99.55
66835;HTU21D;53743;51.100;5.874;2023-05-10T03:45:33;14.86;99.29
66835;HTU21D;53743;51.100;5.874;2023-05-10T03:46:35;14.88;99.20
66835;HTU21D;53743;51.100;5.874;2023-05-10T03:47:36;14.86;99.30
66835;HTU21D;53743;51.100;5.874;2023-05-10T03:48:41;14.86;99.14
66835;HTU21D;53743;51.100;5.874;2023-05-10T03:49:41;14.86;99.28
66835;HTU21D;53743;51.100;5.874;2023-05-10T03:50:43;14.86;99.26
66835;HTU21D;53743;51.100;5.874;2023-05-10T03:51:44;14.86;98.52
66835;HTU21D;53743;51.100;5.874;2023-05-10T03:52:47;14.80;98.64
66835;HTU21D;53743;51.100;5.874;2023-05-10T03:53:48;14.73;98.83
66835;HTU21D;53743;51.100;5.874;2023-05-10T03:54:50;14.73;99.06
66835;HTU21D;53743;51.100;5.874;2023-05-10T03:55:51;14.72;98.84
66835;HTU21D;53743;51.100;5.874;2023-05-10T03:56:53;14.71;99.18
66835;HTU21D;53743;51.100;5.874;2023-05-10T03:57:55;14.68;99.29
66835;HTU21D;53743;51.100;5.874;2023-05-10T03:59:00;14.73;99.21
66835;HTU21D;53743;51.100;5.874;2023-05-10T04:00:02;14.72;98.88
66835;HTU21D;53743;51.100;5.874;2023-05-10T04:01:15;14.73;98.90
66835;HTU21D;53743;51.100;5.874;2023-05-10T04:02:18;14.68;99.35
66835;HTU21D;53743;51.100;5.874;2023-05-10T04:03:20;14.67;99.35
66835;HTU21D;53743;51.100;5.874;2023-05-10T04:04:21;14.68;99.49
66835;HTU21D;53743;51.100;5.874;2023-05-10T04:05:24;14.68;99.12
66835;HTU21D;53743;51.100;5.874;2023-05-10T04:06:29;14.68;99.35
66835;HTU21D;53743;51.100;5.874;2023-05-10T04:07:32;14.62;100.04
66835;HTU21D;53743;51.100;5.874;2023-05-10T04:08:34;14.62;99.90
66835;HTU21D;53743;51.100;5.874;2023-05-10T04:09:36;14.64;99.33
66835;HTU21D;53743;51.100;5.874;2023-05-10T04:10:37;14.62;99.90
66835;HTU21D;53743;51.100;5.874;2023-05-10T04:11:39;14.65;99.49
66835;HTU21D;53743;51.100;5.874;2023-05-10T04:12:39;14.67;99.80
66835;HTU21D;53743;51.100;5.874;2023-05-10T04:13:41;14.67;99.45
66835;HTU21D;53743;51.100;5.874;2023-05-10T04:14:43;14.64;99.60
66835;HTU21D;53743;51.100;5.874;2023-05-10T04:15:48;14.70;99.38
66835;HTU21D;53743;51.100;5.874;2023-05-10T04:16:49;14.71;99.25
66835;HTU21D;53743;51.100;5.874;2023-05-10T04:17:51;14.70;99.17
66835;HTU21D;53743;51.100;5.874;2023-05-10T04:18:52;14.64;99.54
66835;HTU21D;53743;51.100;5.874;2023-05-10T04:19:56;14.64;99.67
66835;HTU21D;53743;51.100;5.874;2023-05-10T04:20:57;14.64;99.71
66835;HTU21D;53743;51.100;5.874;2023-05-10T04:22:02;14.67;99.49
66835;HTU21D;53743;51.100;5.874;2023-05-10T04:23:03;14.69;99.44
66835;HTU21D;53743;51.100;5.874;2023-05-10T04:24:06;14.69;99.66
66835;HTU21D;53743;51.100;5.874;2023-05-10T04:25:08;14.71;99.58
66835;HTU21D;53743;51.100;5.874;2023-05-10T04:26:10;14.77;99.19
66835;HTU21D;53743;51.100;5.874;2023-05-10T04:27:11;14.73;99.54
66835;HTU21D;53743;51.100;5.874;2023-05-10T04:28:12;14.74;99.39
66835;HTU21D;53743;51.100;5.874;2023-05-10T04:29:13;14.74;99.55
66835;HTU21D;53743;51.100;5.874;2023-05-10T04:30:15;14.74;99.80
66835;HTU21D;53743;51.100;5.874;2023-05-10T04:31:16;14.75;99.46
66835;HTU21D;53743;51.100;5.874;2023-05-10T04:32:18;14.74;99.70
66835;HTU21D;53743;51.100;5.874;2023-05-10T04:33:20;14.74;99.71
66835;HTU21D;53743;51.100;5.874;2023-05-10T04:34:22;14.74;99.83
66835;HTU21D;53743;51.100;5.874;2023-05-10T04:35:23;14.78;99.74
66835;HTU21D;53743;51.100;5.874;2023-05-10T04:36:30;14.79;99.46
66835;HTU21D;53743;51.100;5.874;2023-05-10T04:37:32;14.78;99.47
66835;HTU21D;53743;51.100;5.874;2023-05-10T04:38:34;14.77;99.55
66835;HTU21D;53743;51.100;5.874;2023-05-10T04:39:36;14.75;99.68
66835;HTU21D;53743;51.100;5.874;2023-05-10T04:40:38;14.77;99.60
66835;HTU21D;53743;51.100;5.874;2023-05-10T04:41:39;14.78;99.77
66835;HTU21D;53743;51.100;5.874;2023-05-10T04:42:41;14.80;99.56
66835;HTU21D;53743;51.100;5.874;2023-05-10T04:43:42;14.80;99.70
66835;HTU21D;53743;51.100;5.874;2023-05-10T04:44:43;14.83;99.81
66835;HTU21D;53743;51.100;5.874;2023-05-10T04:45:44;14.85;99.77
66835;HTU21D;53743;51.100;5.874;2023-05-10T04:46:46;14.88;99.60
66835;HTU21D;53743;51.100;5.874;2023-05-10T04:47:48;14.87;99.65
66835;HTU21D;53743;51.100;5.874;2023-05-10T04:48:48;14.88;99.52
66835;HTU21D;53743;51.100;5.874;2023-05-10T04:49:50;14.93;99.58
66835;HTU21D;53743;51.100;5.874;2023-05-10T04:50:51;14.93;99.58
66835;HTU21D;53743;51.100;5.874;2023-05-10T04:51:53;14.92;99.20
66835;HTU21D;53743;51.100;5.874;2023-05-10T04:52:54;14.89;99.41
66835;HTU21D;53743;51.100;5.874;2023-05-10T04:53:56;14.92;99.45
66835;HTU21D;53743;51.100;5.874;2023-05-10T04:54:58;14.89;99.45
66835;HTU21D;53743;51.100;5.874;2023-05-10T04:56:00;14.91;99.45
66835;HTU21D;53743;51.100;5.874;2023-05-10T04:57:01;14.93;99.06
66835;HTU21D;53743;51.100;5.874;2023-05-10T04:58:03;14.93;99.22
66835;HTU21D;53743;51.100;5.874;2023-05-10T04:59:03;14.92;99.39
66835;HTU21D;53743;51.100;5.874;2023-05-10T05:00:06;14.91;99.57
66835;HTU21D;53743;51.100;5.874;2023-05-10T05:01:08;14.93;99.64
66835;HTU21D;53743;51.100;5.874;2023-05-10T05:02:10;14.96;99.37
66835;HTU21D;53743;51.100;5.874;2023-05-10T05:03:11;14.96;99.33
66835;HTU21D;53743;51.100;5.874;2023-05-10T05:04:16;14.97;99.24
66835;HTU21D;53743;51.100;5.874;2023-05-10T05:05:18;14.96;99.26
66835;HTU21D;53743;51.100;5.874;2023-05-10T05:06:19;14.99;99.19
66835;HTU21D;53743;51.100;5.874;2023-05-10T05:07:21;14.99;99.03
66835;HTU21D;53743;51.100;5.874;2023-05-10T05:08:23;14.96;98.88
66835;HTU21D;53743;51.100;5.874;2023-05-10T05:09:25;14.95;98.92
66835;HTU21D;53743;51.100;5.874;2023-05-10T05:10:30;14.96;99.26
66835;HTU21D;53743;51.100;5.874;2023-05-10T05:11:31;14.96;99.16
66835;HTU21D;53743;51.100;5.874;2023-05-10T05:12:32;14.98;99.18
66835;HTU21D;53743;51.100;5.874;2023-05-10T05:13:37;14.99;99.19
66835;HTU21D;53743;51.100;5.874;2023-05-10T05:14:38;15.01;98.81
66835;HTU21D;53743;51.100;5.874;2023-05-10T05:15:40;15.01;99.19
66835;HTU21D;53743;51.100;5.874;2023-05-10T05:16:40;14.99;98.93
66835;HTU21D;53743;51.100;5.874;2023-05-10T05:17:42;14.93;99.10
66835;HTU21D;53743;51.100;5.874;2023-05-10T05:18:46;14.96;98.90
66835;HTU21D;53743;51.100;5.874;2023-05-10T05:19:48;14.96;99.09
66835;HTU21D;53743;51.100;5.874;2023-05-10T05:20:48;14.95;99.14
66835;HTU21D;53743;51.100;5.874;2023-05-10T05:21:50;14.94;98.96
66835;HTU21D;53743;51.100;5.874;2023-05-10T05:22:51;14.89;99.19
66835;HTU21D;53743;51.100;5.874;2023-05-10T05:23:53;14.89;99.71
66835;HTU21D;53743;51.100;5.874;2023-05-10T05:24:54;14.92;99.67
66835;HTU21D;53743;51.100;5.874;2023-05-10T05:25:57;14.94;99.75
66835;HTU21D;53743;51.100;5.874;2023-05-10T05:27:01;14.95;99.71
66835;HTU21D;53743;51.100;5.874;2023-05-10T05:28:03;14.98;99.49
66835;HTU21D;53743;51.100;5.874;2023-05-10T05:29:04;14.99;99.70
66835;HTU21D;53743;51.100;5.874;2023-05-10T05:30:07;15.06;99.42
66835;HTU21D;53743;51.100;5.874;2023-05-10T05:31:08;15.09;99.35
66835;HTU21D;53743;51.100;5.874;2023-05-10T05:32:13;15.12;99.04
66835;HTU21D;53743;51.100;5.874;2023-05-10T05:33:14;15.13;98.72
66835;HTU21D;53743;51.100;5.874;2023-05-10T05:34:16;15.13;99.06
66835;HTU21D;53743;51.100;5.874;2023-05-10T05:35:17;15.15;98.82
66835;HTU21D;53743;51.100;5.874;2023-05-10T05:36:19;15.17;99.00
66835;HTU21D;53743;51.100;5.874;2023-05-10T05:37:20;15.17;98.84
66835;HTU21D;53743;51.100;5.874;2023-05-10T05:38:22;15.22;98.73
66835;HTU21D;53743;51.100;5.874;2023-05-10T05:39:24;15.24;98.71
66835;HTU21D;53743;51.100;5.874;2023-05-10T05:40:28;15.26;98.40
66835;HTU21D;53743;51.100;5.874;2023-05-10T05:41:30;15.27;98.45
66835;HTU21D;53743;51.100;5.874;2023-05-10T05:42:32;15.29;98.34
66835;HTU21D;53743;51.100;5.874;2023-05-10T05:43:33;15.32;98.07
66835;HTU21D;53743;51.100;5.874;2023-05-10T05:44:36;15.30;98.16
66835;HTU21D;53743;51.100;5.874;2023-05-10T05:45:37;15.28;98.47
66835;HTU21D;53743;51.100;5.874;2023-05-10T05:46:38;15.27;98.51
66835;HTU21D;53743;51.100;5.874;2023-05-10T05:47:39;15.28;98.29
66835;HTU21D;53743;51.100;5.874;2023-05-10T05:48:41;15.28;98.48
66835;HTU21D;53743;51.100;5.874;2023-05-10T05:49:43;15.25;98.18
66835;HTU21D;53743;51.100;5.874;2023-05-10T05:50:46;15.24;97.93
66835;HTU21D;53743;51.100;5.874;2023-05-10T05:51:48;15.21;98.01
66835;HTU21D;53743;51.100;5.874;2023-05-10T05:52:50;15.21;98.00
66835;HTU21D;53743;51.100;5.874;2023-05-10T05:53:51;15.23;97.49
66835;HTU21D;53743;51.100;5.874;2023-05-10T05:54:52;15.17;98.03
66835;HTU21D;53743;51.100;5.874;2023-05-10T05:55:55;15.17;97.93
66835;HTU21D;53743;51.100;5.874;2023-05-10T05:56:58;15.16;97.88
66835;HTU21D;53743;51.100;5.874;2023-05-10T05:58:00;15.13;98.00
66835;HTU21D;53743;51.100;5.874;2023-05-10T05:59:01;15.13;97.59
66835;HTU21D;53743;51.100;5.874;2023-05-10T06:00:05;15.16;97.28
66835;HTU21D;53743;51.100;5.874;2023-05-10T06:01:13;15.15;97.30
66835;HTU21D;53743;51.100;5.874;2023-05-10T06:02:15;15.15;97.39
66835;HTU21D;53743;51.100;5.874;2023-05-10T06:03:15;15.13;97.40
66835;HTU21D;53743;51.100;5.874;2023-05-10T06:04:17;15.17;97.18
66835;HTU21D;53743;51.100;5.874;2023-05-10T06:05:18;15.18;96.81
66835;HTU21D;53743;51.100;5.874;2023-05-10T06:06:20;15.17;96.88
66835;HTU21D;53743;51.100;5.874;2023-05-10T06:07:23;15.17;97.02
66835;HTU21D;53743;51.100;5.874;2023-05-10T06:08:25;15.13;96.72
66835;HTU21D;53743;51.100;5.874;2023-05-10T06:09:26;15.12;97.04
66835;HTU21D;53743;51.100;5.874;2023-05-10T06:10:28;15.10;97.50
66835;HTU21D;53743;51.100;5.874;2023-05-10T06:11:29;15.13;97.39
66835;HTU21D;53743;51.100;5.874;2023-05-10T06:12:33;15.16;97.52
66835;HTU21D;53743;51.100;5.874;2023-05-10T06:13:34;15.19;97.68
66835;HTU21D;53743;51.100;5.874;2023-05-10T06:14:36;15.25;97.57
66835;HTU21D;53743;51.100;5.874;2023-05-10T06:15:37;15.28;97.50
66835;HTU21D;53743;51.100;5.874;2023-05-10T06:16:39;15.36;97.33
66835;HTU21D;53743;51.100;5.874;2023-05-10T06:17:40;15.43;97.10
66835;HTU21D;53743;51.100;5.874;2023-05-10T06:18:43;15.47;96.82
66835;HTU21D;53743;51.100;5.874;2023-05-10T06:19:44;15.52;96.76
66835;HTU21D;53743;51.100;5.874;2023-05-10T06:20:46;15.57;96.87
66835;HTU21D;53743;51.100;5.874;2023-05-10T06:21:48;15.66;97.03
66835;HTU21D;53743;51.100;5.874;2023-05-10T06:22:50;15.74;96.89
66835;HTU21D;53743;51.100;5.874;2023-05-10T06:23:51;15.85;96.58
66835;HTU21D;53743;51.100;5.874;2023-05-10T06:24:53;15.95;96.46
66835;HTU21D;53743;51.100;5.874;2023-05-10T06:25:54;16.04;96.11
66835;HTU21D;53743;51.100;5.874;2023-05-10T06:26:56;16.16;95.49
66835;HTU21D;53743;51.100;5.874;2023-05-10T06:28:11;16.28;95.10
66835;HTU21D;53743;51.100;5.874;2023-05-10T06:29:12;16.34;94.17
66835;HTU21D;53743;51.100;5.874;2023-05-10T06:30:14;16.37;93.41
66835;HTU21D;53743;51.100;5.874;2023-05-10T06:31:16;16.45;93.96
66835;HTU21D;53743;51.100;5.874;2023-05-10T06:32:18;16.51;94.20
66835;HTU21D;53743;51.100;5.874;2023-05-10T06:33:19;16.57;93.29
66835;HTU21D;53743;51.100;5.874;2023-05-10T06:34:20;16.63;92.52
66835;HTU21D;53743;51.100;5.874;2023-05-10T06:35:21;16.70;93.40
66835;HTU21D;53743;51.100;5.874;2023-05-10T06:36:23;16.81;92.10